Flight Track Log - Related Links

Times and Time Zones

All times are in EDT time to prevent confusion due to time zone crossing. See the EJA947 flight status page for this flight to view local times or setup timezone preferences in your user account.

Time Position Orientation Groundspeed Altitude Reporting Facility
EDT Latitude Longitude Course Direction KTS MPH feet Rate Location/Type
Mon 10:17:00 AM 41.5542 -93.6711 285° West 172 198 2,000  Level Minneapolis Center
Mon 10:17:31 AM 41.5597 -93.6983 285° West 191 220 3,400 3,796 Climbing Minneapolis Center
Mon 10:18:38 AM 41.5372 -93.8008 254° West 226 260 8,200 3,535 Climbing Minneapolis Center
Mon 10:19:40 AM 41.5211 -93.8897 256° West 244 281 11,000 2,098 Climbing Minneapolis Center
Mon 10:20:41 AM 41.5011 -93.9978 256° West 277 319 12,500 1,415 Climbing Minneapolis Center
Mon 10:21:43 AM 41.4811 -94.1069 256° West 301 346 13,900 1,258 Climbing Minneapolis Center
Mon 10:22:45 AM 41.4594 -94.2172 255° West 308 354 15,100 1,805 Climbing Minneapolis Center
Mon 10:23:46 AM 41.4375 -94.3389 257° West 315 362 17,600 1,951 Climbing Minneapolis Center
Mon 10:24:48 AM 41.4156 -94.4525 256° West 313 360 19,100 1,742 Climbing Minneapolis Center
Mon 10:25:50 AM 41.3953 -94.5736 257° West 328 377 21,200 2,244 Climbing Minneapolis Center
Mon 10:26:51 AM 41.3719 -94.6928 255° West 331 381 23,700 2,049 Climbing Minneapolis Center
Mon 10:27:53 AM 41.3492 -94.8117 256° West 331 381 25,400 1,707 Climbing Minneapolis Center
Mon 10:28:54 AM 41.3256 -94.9356 256° West 339 390 27,200 1,756 Climbing Minneapolis Center
Mon 10:29:56 AM 41.3008 -95.0644 256° West 352 405 29,000 1,839 Climbing Minneapolis Center
Mon 10:30:58 AM 41.2756 -95.1922 255° West 356 410 31,000 2,244 Climbing Minneapolis Center
Mon 10:31:59 AM 41.2503 -95.3197 255° West 356 410 33,600 2,049 Climbing Minneapolis Center
Mon 10:33:01 AM 41.2256 -95.4442 255° West 350 403 35,200 1,171 Climbing Minneapolis Center
Mon 10:34:02 AM 41.1933 -95.6064 255° West 378 435 36,000 829 Climbing Minneapolis Center
Mon 10:35:04 AM 41.1642 -95.7494 255° West 390 449 36,900 968 Climbing Minneapolis Center
Mon 10:36:06 AM 41.1319 -95.8875 253° West 390 449 38,000 537 Climbing Minneapolis Center
Mon 10:37:07 AM 41.0981 -96.0267 252° West 391 450 38,000  Level Minneapolis Center
Mon 10:38:09 AM 41.0636 -96.1711 252° West 399 459 38,000  Level Minneapolis Center
Mon 10:39:11 AM 41.0286 -96.3158 252° West 407 468 38,000  Level Minneapolis Center
Mon 10:40:12 AM 40.9933 -96.4606 252° West 410 472 38,000  Level Minneapolis Center
Mon 10:41:14 AM 40.9575 -96.6050 252° West 411 473 38,000  Level Minneapolis Center
Mon 10:42:16 AM 40.9244 -96.7489 253° West 410 472 38,000  Level Minneapolis Center
Mon 10:43:17 AM 40.9089 -96.8981 262° West 410 472 38,000  Level Minneapolis Center
Mon 10:44:19 AM 40.8922 -97.0783 263° West 411 473 38,000  Level Minneapolis Center
Mon 10:45:21 AM 40.8778 -97.2275 263° West 410 472 38,000  Level Minneapolis Center
Mon 10:46:22 AM 40.8617 -97.3731 262° West 409 471 38,000  Level Minneapolis Center
Mon 10:47:24 AM 40.8481 -97.5239 263° West 411 473 38,000  Level Minneapolis Center
Mon 10:48:26 AM 40.8328 -97.6725 262° West 409 471 38,000  Level Minneapolis Center
Mon 10:49:27 AM 40.8178 -97.8233 263° West 412 474 38,000  Level Minneapolis Center
Mon 10:50:29 AM 40.8008 -97.9733 262° West 413 475 38,000  Level Minneapolis Center
Mon 10:51:31 AM 40.7856 -98.1258 263° West 415 478 38,000  Level Minneapolis Center
Mon 10:52:32 AM 40.7664 -98.3089 262° West 417 480 38,000  Level Minneapolis Center
Mon 10:53:34 AM 40.7492 -98.4606 262° West 416 479 38,000  Level Minneapolis Center
Mon 10:54:36 AM 40.7331 -98.6122 262° West 415 478 38,000  Level Minneapolis Center
Mon 10:55:38 AM 40.7164 -98.7653 262° West 416 479 38,000  Level Minneapolis Center
Mon 10:56:39 AM 40.6992 -98.9183 262° West 417 480 38,000  Level Minneapolis Center
Mon 10:57:41 AM 40.6822 -99.0719 262° West 420 483 38,000  Level Minneapolis Center
Mon 10:58:02 AM 40.6747 -99.1328 261° West 420 483 38,000  Level Denver Center
Mon 10:59:04 AM 40.6564 -99.2853 261° West 419 482 38,000  Level Denver Center
Mon 11:00:06 AM 40.6386 -99.4383 261° West 421 484 38,000  Level Denver Center
Mon 11:01:08 AM 40.6206 -99.5906 261° West 420 483 38,000  Level Denver Center
Mon 11:02:10 AM 40.6031 -99.7433 261° West 421 484 38,000  Level Denver Center
Mon 11:03:12 AM 40.5828 -99.9053 261° West 424 488 38,000  Level Denver Center
Mon 11:04:14 AM 40.5622 -100.0767 261° West 422 486 38,000  Level Denver Center
Mon 11:05:16 AM 40.5433 -100.2242 260° West 425 489 38,000  Level Denver Center
Mon 11:06:19 AM 40.5217 -100.3975 261° West 427 491 38,000  Level Denver Center
Mon 11:07:21 AM 40.5025 -100.5464 260° West 429 494 38,000  Level Denver Center
Mon 11:08:23 AM 40.4833 -100.6950 260° West 428 493 38,000  Level Denver Center
Mon 11:09:25 AM 40.4608 -100.8683 260° West 428 493 38,000  Level Denver Center
Mon 11:10:27 AM 40.4369 -101.0169 258° West 432 497 38,000  Level Denver Center
Mon 11:11:29 AM 40.4047 -101.1883 256° West 431 496 38,000 339 Level Denver Center
Mon 11:12:31 AM 40.3769 -101.3311 256° West 421 484 38,700 871 Climbing Denver Center
Mon 11:13:33 AM 40.3442 -101.4931 255° West 412 474 39,800 629 Climbing Denver Center
Mon 11:14:35 AM 40.3172 -101.6342 256° West 416 479 40,000 97 Climbing Denver Center
Mon 11:15:37 AM 40.2844 -101.8042 256° West 429 494 40,000  Level Denver Center
Mon 11:16:39 AM 40.2547 -101.9503 255° West 432 497 40,000  Level Denver Center
Mon 11:17:41 AM 40.2208 -102.1211 255° West 436 502 40,000  Level Denver Center
Mon 11:18:43 AM 40.1917 -102.2675 255° West 434 499 40,000  Level Denver Center
Mon 11:19:45 AM 40.1622 -102.4150 255° West 438 504 40,000  Level Denver Center
Mon 11:20:47 AM 40.1269 -102.5878 255° West 439 505 40,000  Level Denver Center
Mon 11:21:49 AM 40.0931 -102.7472 255° West 440 506 40,000  Level Denver Center
Mon 11:22:51 AM 40.0611 -102.9022 255° West 438 504 40,000  Level Denver Center
Mon 11:23:53 AM 40.0289 -103.0547 255° West 433 498 40,000  Level Denver Center
Mon 11:24:55 AM 39.9975 -103.2097 255° West 435 501 40,000  Level Denver Center
Mon 11:25:57 AM 39.9650 -103.3625 255° West 434 499 40,000  Level Denver Center
Mon 11:26:59 AM 39.9269 -103.5403 254° West 432 497 40,000  Level Denver Center
Mon 11:28:01 AM 39.8939 -103.6931 254° West 432 497 40,000  Level Denver Center
Mon 11:29:03 AM 39.8617 -103.8469 255° West 436 502 40,000  Level Denver Center
Mon 11:30:05 AM 39.8292 -103.9956 254° West 423 487 40,000  Level Denver Center
Mon 11:31:07 AM 39.7961 -104.1475 254° West 430 495 40,000  Level Denver Center
Mon 11:32:09 AM 39.7622 -104.2981 254° West 431 496 40,000  Level Denver Center
Mon 11:33:12 AM 39.7272 -104.4539 254° West 443 510 40,000  Level Denver Center
Mon 11:34:14 AM 39.6878 -104.6331 254° West 444 511 40,000  Level Denver Center
Mon 11:35:16 AM 39.6742 -104.7900 264° West 454 522 40,000  Level Denver Center
Mon 11:36:18 AM 39.6569 -104.9483 262° West 446 513 40,000  Level Denver Center
Mon 11:37:20 AM 39.6397 -105.1069 262° West 441 507 40,000  Level Denver Center
Mon 11:38:22 AM 39.6194 -105.2936 262° West 439 505 40,000  Level Denver Center
Mon 11:39:24 AM 39.6025 -105.4506 262° West 437 503 40,000  Level Denver Center
Mon 11:40:26 AM 39.5842 -105.6092 262° West 438 504 40,000  Level Denver Center
Mon 11:41:28 AM 39.5667 -105.7675 262° West 438 504 40,000  Level Denver Center
Mon 11:42:30 AM 39.5514 -105.9239 263° West 432 497 40,000  Level Denver Center
Mon 11:43:32 AM 39.5342 -106.0797 262° West 434 499 40,000  Level Denver Center
Mon 11:45:08 AM 39.5047 -106.3275 261° West 434 499 40,000  Level Salt Lake Center
Mon 11:45:36 AM 39.4983 -106.3953 263° West 432 497 40,000  Level Denver Center
Mon 11:46:38 AM 39.4778 -106.5700 261° West 428 493 40,000  Level Denver Center
Mon 11:47:40 AM 39.4617 -106.7094 262° West 410 472 40,000  Level Denver Center
Mon 11:48:42 AM 39.4411 -106.8733 261° West 412 474 40,000  Level Denver Center
Mon 11:49:44 AM 39.4078 -107.0125 253° West 423 487 40,000  Level Denver Center
Mon 11:50:46 AM 39.3758 -107.1508 253° West 422 486 40,000  Level Denver Center
Mon 11:51:48 AM 39.3350 -107.3083 252° West 414 476 40,000  Level Denver Center
Mon 11:52:50 AM 39.3017 -107.4392 252° West 404 465 40,000  Level Denver Center
Mon 11:53:52 AM 39.2625 -107.5936 252° West 406 467 40,000  Level Denver Center
Mon 11:54:53 AM 39.2275 -107.7297 252° West 413 475 40,000  Level Denver Center
Mon 11:55:55 AM 39.1853 -107.8914 251° West 422 486 40,000  Level Denver Center
Mon 11:56:57 AM 39.1500 -108.0286 252° West 420 483 40,000  Level Denver Center
Mon 11:57:59 AM 39.1092 -108.1878 252° West 418 481 40,000  Level Denver Center
Mon 11:59:01 AM 39.0722 -108.3256 251° West 422 486 40,000  Level Denver Center
Mon 12:00:03 PM 39.0356 -108.4647 251° West 427 491 40,000  Level Denver Center
Mon 12:01:06 PM 38.9917 -108.6281 251° West 430 495 40,000  Level Denver Center
Mon 12:02:08 PM 38.9550 -108.7667 251° West 427 491 40,000  Level Denver Center
Mon 12:03:10 PM 38.9125 -108.9264 251° West 422 486 40,000  Level Denver Center
Mon 12:04:12 PM 38.8761 -109.0639 251° West 423 487 40,000  Level Denver Center
Mon 12:05:13 PM 38.8311 -109.2242 250° West 427 491 40,000  Level Denver Center
Mon 12:06:15 PM 38.7931 -109.3622 251° West 429 494 40,000  Level Denver Center
Mon 12:07:17 PM 38.7553 -109.5017 251° West 431 496 40,000  Level Denver Center
Mon 12:08:19 PM 38.7111 -109.6603 250° West 422 486 40,000  Level Denver Center
Mon 12:09:21 PM 38.6733 -109.7969 251° West 425 489 40,000  Level Denver Center
Mon 12:09:56 PM 38.6489 -109.8883 251° West 423 487 40,000  Level Salt Lake Center
Mon 12:10:58 PM 38.6100 -110.0236 250° West 423 487 40,000  Level Salt Lake Center
Mon 12:11:25 PM 38.5908 -110.0900 250° West 422 486 40,000  Level Denver Center
Mon 12:12:00 PM 38.5675 -110.1819 252° West 423 487 40,000  Level Salt Lake Center
Mon 12:13:02 PM 38.5278 -110.3158 249° West 421 484 40,000  Level Salt Lake Center
Mon 12:13:29 PM 38.5083 -110.3814 249° West 420 483 40,000  Level Denver Center
Mon 12:14:31 PM 38.4631 -110.5378 250° West 419 482 40,000  Level Denver Center
Mon 12:15:33 PM 38.4247 -110.6714 250° West 419 482 40,000  Level Denver Center
Mon 12:16:07 PM 38.3950 -110.7603 247° West 421 484 40,000  Level Salt Lake Center
Mon 12:17:09 PM 38.3361 -110.8842 239° Southwest 424 488 40,000  Level Salt Lake Center
Mon 12:18:11 PM 38.2758 -111.0150 240° Southwest 425 489 40,000  Level Salt Lake Center
Mon 12:19:13 PM 38.2194 -111.1458 241° Southwest 422 486 40,000  Level Salt Lake Center
Mon 12:20:14 PM 38.1608 -111.2764 240° Southwest 426 490 40,000  Level Salt Lake Center
Mon 12:21:16 PM 38.0997 -111.4072 239° Southwest 431 496 40,000  Level Salt Lake Center
Mon 12:22:18 PM 38.0292 -111.5642 240° Southwest 428 493 40,000  Level Salt Lake Center
Mon 12:23:20 PM 37.9692 -111.6953 240° Southwest 430 495 40,000  Level Salt Lake Center
Mon 12:24:22 PM 37.9100 -111.8256 240° Southwest 428 493 40,000  Level Salt Lake Center
Mon 12:25:24 PM 37.8494 -111.9556 239° Southwest 429 494 40,000  Level Salt Lake Center
Mon 12:26:25 PM 37.7903 -112.0856 240° Southwest 427 491 40,000  Level Salt Lake Center
Mon 12:27:27 PM 37.7297 -112.2158 240° Southwest 430 495 40,000  Level Salt Lake Center
Mon 12:28:29 PM 37.6492 -112.3686 236° Southwest 434 499 40,000  Level Salt Lake Center
Mon 12:29:31 PM 37.5722 -112.4858 230° Southwest 433 498 40,000  Level Salt Lake Center
Mon 12:30:32 PM 37.4961 -112.6058 231° Southwest 434 499 40,000  Level Salt Lake Center
Mon 12:31:34 PM 37.4178 -112.7250 230° Southwest 434 499 40,000  Level Salt Lake Center
Mon 12:32:36 PM 37.3408 -112.8450 231° Southwest 435 501 40,000  Level Salt Lake Center
Mon 12:33:38 PM 37.2642 -112.9642 231° Southwest 435 501 40,000  Level Salt Lake Center
Mon 12:34:40 PM 37.1878 -113.0808 231° Southwest 432 497 40,000  Level Salt Lake Center
Mon 12:34:57 PM 37.1569 -113.1269 230° Southwest 432 497 40,000  Level Los Angeles Center
Mon 12:35:41 PM 37.1117 -113.1978 231° Southwest 432 497 40,000  Level Salt Lake Center
Mon 12:35:59 PM 37.0811 -113.2436 230° Southwest 431 496 40,000  Level Los Angeles Center
Mon 12:37:02 PM 37.0047 -113.3603 231° Southwest 432 497 40,000  Level Los Angeles Center
Mon 12:38:04 PM 36.9269 -113.4778 230° Southwest 436 502 40,000  Level Los Angeles Center
Mon 12:39:06 PM 36.8500 -113.5953 231° Southwest 438 504 40,000  Level Los Angeles Center
Mon 12:40:08 PM 36.7711 -113.7144 230° Southwest 442 509 40,000  Level Los Angeles Center
Mon 12:41:10 PM 36.6758 -113.8561 230° Southwest 446 513 40,000  Level Los Angeles Center
Mon 12:42:12 PM 36.5975 -113.9750 231° Southwest 447 514 40,000  Level Los Angeles Center
Mon 12:43:14 PM 36.5169 -114.0950 230° Southwest 451 519 40,000  Level Los Angeles Center
Mon 12:44:16 PM 36.4444 -114.2022 230° Southwest 448 516 40,000  Level Los Angeles Center
Mon 12:45:18 PM 36.3478 -114.3469 230° Southwest 452 520 40,000  Level Los Angeles Center
Mon 12:46:20 PM 36.2675 -114.4644 230° Southwest 447 514 40,000  Level Los Angeles Center
Mon 12:47:23 PM 36.1861 -114.5844 230° Southwest 452 520 40,000  Level Los Angeles Center
Mon 12:48:25 PM 36.1047 -114.7042 230° Southwest 453 521 40,000  Level Los Angeles Center
Mon 12:49:27 PM 36.0217 -114.8250 230° Southwest 457 526 40,000  Level Los Angeles Center
Mon 12:50:29 PM 35.9378 -114.9417 228° Southwest 452 520 40,000  Level Los Angeles Center
Mon 12:51:31 PM 35.8514 -115.0586 228° Southwest 457 526 40,000  Level Los Angeles Center
Mon 12:52:33 PM 35.7483 -115.1989 228° Southwest 456 525 40,000  Level Los Angeles Center
Mon 12:53:35 PM 35.6619 -115.3181 228° Southwest 461 531 40,000 -242 Level Los Angeles Center
Mon 12:54:37 PM 35.5744 -115.4344 227° Southwest 461 531 39,500 -1,210 Descending Los Angeles Center
Mon 12:55:39 PM 35.4875 -115.5531 228° Southwest 463 533 37,500 -1,968 Descending Los Angeles Center
Mon 12:56:42 PM 35.4003 -115.6678 227° Southwest 445 512 35,400 -2,016 Descending Los Angeles Center
Mon 12:57:44 PM 35.3147 -115.7825 228° Southwest 452 520 33,300 -1,984 Descending Los Angeles Center
Mon 12:58:46 PM 35.2247 -115.9006 227° Southwest 469 540 31,300 -1,500 Descending Los Angeles Center
Mon 12:59:48 PM 35.1358 -116.0189 227° Southwest 473 544 30,200 -629 Descending Los Angeles Center
Mon 01:00:50 PM 35.0292 -116.1586 227° Southwest 467 537 30,000 -97 Descending Los Angeles Center
Mon 01:01:52 PM 34.9414 -116.2733 227° Southwest 465 535 30,000 -532 Level Los Angeles Center
Mon 01:02:54 PM 34.8572 -116.3850 227° Southwest 451 519 28,900 -1,694 Descending Los Angeles Center
Mon 01:03:56 PM 34.7714 -116.4942 226° Southwest 446 513 26,500 -2,304 Descending Los Angeles Center
Mon 01:04:59 PM 34.6844 -116.6011 225° Southwest 441 507 24,100 -1,344 Descending Los Angeles Center
Mon 01:06:01 PM 34.6053 -116.6978 225° Southwest 404 465 23,700 -1,500 Descending Los Angeles Center
Mon 01:07:03 PM 34.5339 -116.7828 224° Southwest 363 418 21,000 -2,806 Descending Los Angeles Center
Mon 01:08:05 PM 34.4433 -116.8953 226° Southwest 386 444 17,900 -2,565 Descending Los Angeles Center
Mon 01:09:07 PM 34.3625 -116.9928 225° Southwest 407 468 15,700 -2,177 Descending Los Angeles Center
Mon 01:10:09 PM 34.2875 -117.0836 225° Southwest 384 442 13,400 -1,296 Descending Los Angeles Center
Mon 01:11:12 PM 34.1853 -117.1217 197° South 388 447 13,000 -194 Descending Los Angeles Center
Mon 01:12:13 PM 34.0600 -117.1431 188° South 401 461 13,000 -488 Level Los Angeles Center
Mon 01:13:15 PM 33.9489 -117.1825 196° South 398 458 12,000 -1,104 Descending Los Angeles Center
Mon 01:14:18 PM 33.8769 -117.2533 219° Southwest 344 396 10,700 -1,240 Descending Los Angeles Center
Mon 01:15:16 PM 33.8500 -117.3333 248° West 265 305 9,500 -1,161 Descending Southern California TRACON
Mon 01:16:22 PM 33.8333 -117.4167 256° West 232 267 8,300 -750 Descending Southern California TRACON
Mon 01:17:16 PM 33.8167 -117.4833 253° West 205 236 8,000 -450 Descending Southern California TRACON
Mon 01:18:22 PM 33.8000 -117.5500 253° West 194 223 7,400 -667 Descending Southern California TRACON
Mon 01:19:22 PM 33.7833 -117.6167 253° West 202 232 6,600 -516 Descending Southern California TRACON
Mon 01:20:30 PM 33.8175 -117.6672 309° West 191 220 6,300 -923 Descending Los Angeles Center
Mon 01:21:32 PM 33.8472 -117.7214 303° West 191 220 4,600 -1,446 Descending Los Angeles Center
Mon 01:22:22 PM 33.8333 -117.7667 250° West 187 215 3,600 -988 Descending Southern California TRACON
Mon 01:24:16 PM 33.7667 -117.8167 212° Southwest 157 181 1,900 -775 Descending Southern California TRACON
Mon 01:26:22 PM 33.7000 -117.8500 203° Southwest 117 135 500 -667 Descending Southern California TRACON
Mon 01:29:00 PM 33.6757 -117.8682 132° Southeast  Level Estimated

Login

Don't have an account? Register now (free) for customized features, flight alerts, and more!